Time;durP1;ratioP1;P1;durP2;ratioP2;P2;SDS_P1;SDS_P2;PMS_P1;PMS_P2;Temp;Humidity;BMP_temperature;BMP_pressure;BME280_temperature;BME280_humidity;BME280_pressure;Samples;Min_cycle;Max_cycle;Signal;HPM_P1;HPM_P2
2022/07/05 00:00:44;;;;;;;;;;;21.80;73.00;;;;;;5052613;28;1275;-68
2022/07/05 00:03:09;;;;;;;;;;;21.80;73.00;;;;;;5053242;28;1014;-67
2022/07/05 00:05:35;;;;;;;;;;;21.80;73.00;;;;;;5018313;28;1891;-67
2022/07/05 00:08:01;;;;;;;;;;;21.80;73.10;;;;;;5053062;28;1001;-66
2022/07/05 00:10:26;;;;;;;;;;;21.80;73.10;;;;;;5052933;28;1197;-67
2022/07/05 00:12:51;;;;;;;;;;;21.80;73.10;;;;;;5053034;28;1079;-65
2022/07/05 00:15:17;;;;;;;;;;;21.80;73.10;;;;;;5047853;28;1169;-67
2022/07/05 00:17:42;;;;;;;;;;;21.80;73.10;;;;;;5015339;28;812;-67
2022/07/05 00:20:08;;;;;;;;;;;21.80;73.10;;;;;;5032784;28;1351;-64
2022/07/05 00:22:33;;;;;;;;;;;21.80;73.10;;;;;;5035320;28;994;-66
2022/07/05 00:24:59;;;;;;;;;;;21.80;73.00;;;;;;5040167;28;1188;-66
2022/07/05 00:27:24;;;;;;;;;;;21.80;73.10;;;;;;5056659;28;1953;-66
2022/07/05 00:29:50;;;;;;;;;;;21.80;73.10;;;;;;5056703;28;1201;-66
2022/07/05 00:32:15;;;;;;;;;;;21.80;73.10;;;;;;5056853;28;674;-67
2022/07/05 00:34:41;;;;;;;;;;;21.80;73.10;;;;;;5056444;28;1037;-67
2022/07/05 00:37:06;;;;;;;;;;;21.80;73.10;;;;;;5038916;28;840;-68
2022/07/05 00:39:32;;;;;;;;;;;21.80;73.00;;;;;;5056591;28;1131;-67
2022/07/05 00:41:57;;;;;;;;;;;21.80;73.00;;;;;;5056326;28;851;-67
2022/07/05 00:44:35;;;;;;;;;;;21.80;73.00;;;;;;5056616;28;894;-67
2022/07/05 00:47:02;;;;;;;;;;;21.80;73.10;;;;;;5038687;28;1894;-66
2022/07/05 00:49:28;;;;;;;;;;;21.80;73.10;;;;;;5056399;28;1268;-67
2022/07/05 00:51:53;;;;;;;;;;;21.80;73.10;;;;;;5038567;28;902;-67
2022/07/05 00:54:19;;;;;;;;;;;21.80;73.00;;;;;;5038169;28;894;-67
2022/07/05 00:56:44;;;;;;;;;;;21.80;73.10;;;;;;5038381;28;891;-66
2022/07/05 00:59:09;;;;;;;;;;;21.80;73.10;;;;;;5038252;28;1298;-67
2022/07/05 01:01:35;;;;;;;;;;;21.80;73.10;;;;;;5056736;28;1085;-66
2022/07/05 01:04:00;;;;;;;;;;;21.80;73.10;;;;;;5056139;28;1061;-67
2022/07/05 01:06:26;;;;;;;;;;;21.80;73.10;;;;;;5056031;28;1955;-66
2022/07/05 01:08:51;;;;;;;;;;;21.80;73.10;;;;;;5056014;28;1214;-66
2022/07/05 01:11:17;;;;;;;;;;;21.80;73.10;;;;;;5038040;28;1057;-67
2022/07/05 01:13:42;;;;;;;;;;;21.80;73.10;;;;;;5055728;28;1073;-67
2022/07/05 01:16:07;;;;;;;;;;;21.80;73.10;;;;;;5044030;28;1131;-65
2022/07/05 01:18:33;;;;;;;;;;;21.80;73.10;;;;;;5018203;28;1190;-66
2022/07/05 01:20:59;;;;;;;;;;;21.80;73.10;;;;;;5018289;28;1196;-65
2022/07/05 01:23:26;;;;;;;;;;;21.80;73.00;;;;;;5018203;28;970;-64
2022/07/05 01:25:53;;;;;;;;;;;21.80;73.10;;;;;;5046044;28;1898;-67
2022/07/05 01:28:18;;;;;;;;;;;21.80;73.10;;;;;;5038084;28;863;-67
2022/07/05 01:30:44;;;;;;;;;;;21.80;73.00;;;;;;5055799;28;1294;-66
2022/07/05 01:33:10;;;;;;;;;;;21.80;73.10;;;;;;5037631;28;1084;-66
2022/07/05 01:35:35;;;;;;;;;;;21.80;73.00;;;;;;5036299;28;2234;-66
2022/07/05 01:38:00;;;;;;;;;;;21.80;73.10;;;;;;5055472;28;1302;-66
2022/07/05 01:40:26;;;;;;;;;;;21.80;73.10;;;;;;5046857;28;1352;-67
2022/07/05 01:42:51;;;;;;;;;;;21.80;73.00;;;;;;5055251;28;850;-65
2022/07/05 01:45:39;;;;;;;;;;;21.80;73.10;;;;;;5055068;28;1906;-67
2022/07/05 01:48:04;;;;;;;;;;;21.80;73.00;;;;;;5055252;28;1453;-67
2022/07/05 01:50:31;;;;;;;;;;;21.80;73.00;;;;;;5037594;28;1205;-67
2022/07/05 01:52:56;;;;;;;;;;;21.80;73.10;;;;;;5055094;28;975;-67
2022/07/05 01:55:22;;;;;;;;;;;21.80;73.10;;;;;;5055046;28;883;-68
2022/07/05 01:57:47;;;;;;;;;;;21.80;73.10;;;;;;5055162;28;895;-67
2022/07/05 02:00:13;;;;;;;;;;;21.80;73.10;;;;;;5055286;28;1268;-67
2022/07/05 02:02:41;;;;;;;;;;;21.80;73.10;;;;;;5055208;28;753;-67
2022/07/05 02:05:06;;;;;;;;;;;21.80;73.00;;;;;;5036995;28;1038;-66
2022/07/05 02:07:32;;;;;;;;;;;21.80;73.10;;;;;;5054858;28;1910;-65
2022/07/05 02:09:57;;;;;;;;;;;21.80;73.10;;;;;;5054928;28;1265;-67
2022/07/05 02:12:23;;;;;;;;;;;21.80;73.00;;;;;;5054676;28;1029;-67
2022/07/05 02:14:48;;;;;;;;;;;21.80;73.00;;;;;;5053860;28;1138;-65
2022/07/05 02:17:14;;;;;;;;;;;21.80;73.10;;;;;;5034761;28;1010;-65
2022/07/05 02:19:39;;;;;;;;;;;21.80;73.00;;;;;;5034718;28;1694;-67
2022/07/05 02:22:04;;;;;;;;;;;21.80;73.10;;;;;;5034719;28;843;-67
2022/07/05 02:24:30;;;;;;;;;;;21.80;73.00;;;;;;5016859;28;867;-67
2022/07/05 02:26:55;;;;;;;;;;;21.80;73.10;;;;;;5054136;28;1906;-67
2022/07/05 02:29:21;;;;;;;;;;;21.80;73.10;;;;;;5054630;28;1298;-67
2022/07/05 02:31:46;;;;;;;;;;;21.80;73.00;;;;;;5054438;28;807;-67
2022/07/05 02:34:12;;;;;;;;;;;21.80;73.00;;;;;;5054237;28;847;-67
2022/07/05 02:36:37;;;;;;;;;;;21.80;73.00;;;;;;5036239;28;1013;-67
2022/07/05 02:39:03;;;;;;;;;;;21.80;73.10;;;;;;5054361;28;1297;-67
2022/07/05 02:41:28;;;;;;;;;;;21.80;73.10;;;;;;5054113;28;891;-67
2022/07/05 02:43:53;;;;;;;;;;;21.80;73.00;;;;;;5053559;28;981;-68
2022/07/05 02:46:19;;;;;;;;;;;21.80;73.00;;;;;;5054044;28;1945;-67
2022/07/05 02:48:44;;;;;;;;;;;21.80;73.00;;;;;;5054422;28;827;-67
2022/07/05 02:51:10;;;;;;;;;;;21.80;73.00;;;;;;5053864;28;1196;-67
2022/07/05 02:53:35;;;;;;;;;;;21.80;73.10;;;;;;5053980;28;820;-68
2022/07/05 02:56:01;;;;;;;;;;;21.80;73.10;;;;;;5053770;28;941;-67
2022/07/05 02:58:26;;;;;;;;;;;21.80;73.00;;;;;;5036263;28;1014;-67
2022/07/05 03:00:52;;;;;;;;;;;21.80;73.00;;;;;;5053646;28;1266;-67
2022/07/05 03:03:17;;;;;;;;;;;21.80;73.00;;;;;;5053979;28;1004;-67
2022/07/05 03:05:43;;;;;;;;;;;21.80;73.00;;;;;;5053427;28;1952;-67
2022/07/05 03:08:08;;;;;;;;;;;21.80;73.00;;;;;;5053942;28;1006;-67
2022/07/05 03:10:34;;;;;;;;;;;21.80;73.00;;;;;;5053860;28;1211;-67
2022/07/05 03:12:59;;;;;;;;;;;21.80;73.00;;;;;;5053835;28;839;-67
2022/07/05 03:15:25;;;;;;;;;;;21.80;73.10;;;;;;5047679;28;1317;-67
2022/07/05 03:17:50;;;;;;;;;;;21.80;73.00;;;;;;5033686;28;851;-67
2022/07/05 03:20:15;;;;;;;;;;;21.80;73.10;;;;;;5033549;28;1350;-67
2022/07/05 03:22:41;;;;;;;;;;;21.80;73.00;;;;;;5033466;28;1049;-67
2022/07/05 03:25:07;;;;;;;;;;;21.80;73.00;;;;;;5037824;28;1064;-67
2022/07/05 03:27:32;;;;;;;;;;;21.80;73.00;;;;;;5053248;28;1902;-67
2022/07/05 03:29:57;;;;;;;;;;;21.80;73.00;;;;;;5053642;28;1183;-67
2022/07/05 03:32:23;;;;;;;;;;;21.80;73.00;;;;;;5053638;28;915;-67
2022/07/05 03:34:48;;;;;;;;;;;21.80;73.80;;;;;;5053314;28;780;-67
2022/07/05 03:37:14;;;;;;;;;;;21.80;73.10;;;;;;5053357;28;942;-67
2022/07/05 03:39:39;;;;;;;;;;;21.80;73.10;;;;;;5053128;28;1211;-67
2022/07/05 03:42:05;;;;;;;;;;;21.80;73.80;;;;;;5053441;28;772;-67
2022/07/05 03:44:32;;;;;;;;;;;21.80;73.00;;;;;;5053039;28;938;-67
2022/07/05 03:46:58;;;;;;;;;;;21.80;73.00;;;;;;5053075;28;1894;-67
2022/07/05 03:49:23;;;;;;;;;;;21.80;73.00;;;;;;5053022;28;1283;-67
2022/07/05 03:51:49;;;;;;;;;;;21.80;73.10;;;;;;5052895;28;969;-67
2022/07/05 03:54:14;;;;;;;;;;;21.80;73.10;;;;;;5052734;28;875;-68
2022/07/05 03:56:40;;;;;;;;;;;21.80;73.10;;;;;;5052101;28;895;-67
2022/07/05 03:59:05;;;;;;;;;;;21.80;73.00;;;;;;5052993;28;1211;-67
2022/07/05 04:01:31;;;;;;;;;;;21.80;73.00;;;;;;5052798;28;1021;-67
2022/07/05 04:03:56;;;;;;;;;;;21.80;73.00;;;;;;5034738;28;875;-67
2022/07/05 04:06:22;;;;;;;;;;;21.80;73.10;;;;;;5034869;28;1910;-67
2022/07/05 04:08:48;;;;;;;;;;;21.80;73.00;;;;;;5052949;28;906;-67
2022/07/05 04:11:15;;;;;;;;;;;21.80;73.10;;;;;;5052680;28;1199;-67
2022/07/05 04:13:41;;;;;;;;;;;21.80;73.00;;;;;;5052713;28;823;-68
2022/07/05 04:16:07;;;;;;;;;;;21.80;73.10;;;;;;5023438;28;1151;-67
2022/07/05 04:18:32;;;;;;;;;;;21.80;73.00;;;;;;5032761;28;1158;-67
2022/07/05 04:20:57;;;;;;;;;;;21.80;73.10;;;;;;5032764;28;1215;-67
2022/07/05 04:23:23;;;;;;;;;;;21.80;73.00;;;;;;5032813;28;708;-67
2022/07/05 04:25:48;;;;;;;;;;;21.80;73.00;;;;;;5043039;28;1902;-67
2022/07/05 04:28:14;;;;;;;;;;;21.80;73.00;;;;;;5052900;28;800;-67
2022/07/05 04:30:39;;;;;;;;;;;21.80;73.00;;;;;;5052753;28;1192;-67
2022/07/05 04:33:05;;;;;;;;;;;21.80;73.00;;;;;;5052574;28;791;-67
2022/07/05 04:35:30;;;;;;;;;;;21.80;73.10;;;;;;5052330;28;1215;-67
2022/07/05 04:37:55;;;;;;;;;;;21.80;73.10;;;;;;5052851;28;784;-67
2022/07/05 04:40:21;;;;;;;;;;;21.80;73.10;;;;;;5052515;28;1307;-67
2022/07/05 04:42:46;;;;;;;;;;;21.80;73.10;;;;;;5052546;28;890;-68
2022/07/05 04:45:12;;;;;;;;;;;21.80;73.10;;;;;;5052372;28;911;-67
2022/07/05 04:47:37;;;;;;;;;;;21.80;73.10;;;;;;5052414;28;1953;-67
2022/07/05 04:50:03;;;;;;;;;;;21.80;73.10;;;;;;5052340;28;1220;-67
2022/07/05 04:52:28;;;;;;;;;;;21.80;73.10;;;;;;5052560;28;910;-67
2022/07/05 04:54:54;;;;;;;;;;;21.80;73.10;;;;;;5052216;28;804;-66
2022/07/05 04:57:19;;;;;;;;;;;21.80;73.00;;;;;;5052404;28;1104;-67
2022/07/05 04:59:45;;;;;;;;;;;21.80;73.10;;;;;;5034492;28;1205;-67
2022/07/05 05:02:10;;;;;;;;;;;21.80;73.10;;;;;;5034530;28;878;-67
2022/07/05 05:04:36;;;;;;;;;;;21.80;73.10;;;;;;5052006;28;946;-67
2022/07/05 05:07:01;;;;;;;;;;;21.80;73.10;;;;;;5052481;28;1942;-67
2022/07/05 05:09:27;;;;;;;;;;;21.80;73.10;;;;;;5056099;28;1203;-67
2022/07/05 05:11:52;;;;;;;;;;;21.80;73.00;;;;;;5055956;28;1045;-67
2022/07/05 05:14:17;;;;;;;;;;;21.80;73.00;;;;;;5055658;28;945;-67
2022/07/05 05:16:43;;;;;;;;;;;21.80;73.10;;;;;;5039400;28;1158;-67
2022/07/05 05:19:08;;;;;;;;;;;21.80;73.00;;;;;;5036108;28;1343;-67
2022/07/05 05:21:34;;;;;;;;;;;21.80;73.00;;;;;;5035826;28;783;-68
2022/07/05 05:23:59;;;;;;;;;;;21.80;73.10;;;;;;5035635;28;1030;-67
2022/07/05 05:26:25;;;;;;;;;;;21.80;73.10;;;;;;5050947;28;1898;-67
2022/07/05 05:28:50;;;;;;;;;;;21.80;73.10;;;;;;5055760;28;1278;-67
2022/07/05 05:31:17;;;;;;;;;;;21.80;73.10;;;;;;5055632;28;828;-67
2022/07/05 05:33:43;;;;;;;;;;;21.80;73.10;;;;;;5055287;28;882;-67
2022/07/05 05:36:08;;;;;;;;;;;21.80;73.00;;;;;;5055452;28;882;-67
2022/07/05 05:38:34;;;;;;;;;;;21.80;73.10;;;;;;5037715;28;931;-67
2022/07/05 05:40:59;;;;;;;;;;;21.80;73.10;;;;;;5055407;28;1215;-67
2022/07/05 05:43:24;;;;;;;;;;;21.80;73.10;;;;;;5055361;28;847;-67
2022/07/05 05:45:50;;;;;;;;;;;21.80;73.10;;;;;;5055144;28;1910;-67
2022/07/05 05:48:15;;;;;;;;;;;21.80;73.10;;;;;;5055086;28;807;-67
2022/07/05 05:50:41;;;;;;;;;;;21.80;73.10;;;;;;5055096;28;1317;-67
2022/07/05 05:53:06;;;;;;;;;;;21.80;73.10;;;;;;5055247;28;780;-67
2022/07/05 05:55:32;;;;;;;;;;;21.80;73.10;;;;;;5054994;28;886;-67
2022/07/05 05:58:18;;;;;;;;;;;21.80;73.10;;;;;;5037322;28;947;-67
2022/07/05 06:00:43;;;;;;;;;;;21.80;73.10;;;;;;5054169;28;1180;-67
2022/07/05 06:03:09;;;;;;;;;;;21.80;73.10;;;;;;5037309;28;828;-67
2022/07/05 06:05:34;;;;;;;;;;;21.80;73.10;;;;;;5054677;28;1965;-67
2022/07/05 06:08:00;;;;;;;;;;;21.80;73.10;;;;;;5055364;28;792;-68
2022/07/05 06:10:26;;;;;;;;;;;21.80;73.10;;;;;;5054894;28;1272;-67
2022/07/05 06:12:52;;;;;;;;;;;21.80;73.10;;;;;;5054860;28;838;-67
2022/07/05 06:15:18;;;;;;;;;;;21.80;73.10;;;;;;5031897;28;1138;-66
2022/07/05 06:17:43;;;;;;;;;;;21.80;73.10;;;;;;5034810;28;783;-67
2022/07/05 06:20:12;;;;;;;;;;;21.80;73.10;;;;;;5033660;28;1292;-67
2022/07/05 06:22:38;;;;;;;;;;;21.80;73.10;;;;;;5017034;28;848;-67
2022/07/05 06:25:03;;;;;;;;;;;21.80;73.10;;;;;;5038536;28;1210;-67
2022/07/05 06:27:29;;;;;;;;;;;21.80;73.10;;;;;;5054471;28;1965;-67
2022/07/05 06:29:54;;;;;;;;;;;21.80;73.10;;;;;;5054326;28;1289;-67
2022/07/05 06:32:20;;;;;;;;;;;21.80;73.10;;;;;;5054451;28;950;-67
2022/07/05 06:34:45;;;;;;;;;;;21.80;73.10;;;;;;5054198;28;978;-67
2022/07/05 06:37:11;;;;;;;;;;;21.80;73.10;;;;;;5054416;28;701;-67
2022/07/05 06:39:36;;;;;;;;;;;21.80;73.10;;;;;;5054246;28;1189;-67
2022/07/05 06:42:02;;;;;;;;;;;21.80;73.10;;;;;;5054294;28;807;-67
2022/07/05 06:44:27;;;;;;;;;;;21.80;73.10;;;;;;5036058;28;871;-68
2022/07/05 06:46:53;;;;;;;;;;;21.80;73.10;;;;;;5054088;28;1894;-67
2022/07/05 06:49:18;;;;;;;;;;;21.80;73.10;;;;;;5054121;28;1338;-67
2022/07/05 06:51:44;;;;;;;;;;;21.80;73.10;;;;;;5054282;28;1038;-67
2022/07/05 06:54:09;;;;;;;;;;;21.80;73.10;;;;;;5053770;28;1001;-67
2022/07/05 06:56:34;;;;;;;;;;;21.80;73.10;;;;;;5054442;28;793;-67
2022/07/05 06:59:00;;;;;;;;;;;21.80;73.10;;;;;;5053900;28;1191;-67
2022/07/05 07:01:25;;;;;;;;;;;21.80;73.10;;;;;;5054294;28;912;-67
2022/07/05 07:03:51;;;;;;;;;;;21.80;73.10;;;;;;5035856;28;1540;-68
2022/07/05 07:06:16;;;;;;;;;;;21.80;73.10;;;;;;5053604;28;1902;-67
2022/07/05 07:11:26;;;;;;;;;;;21.80;73.20;;;;;;5053689;28;740;-67
2022/07/05 07:13:52;;;;;;;;;;;21.80;73.20;;;;;;5053362;28;922;-67
2022/07/05 07:16:17;;;;;;;;;;;21.80;73.10;;;;;;5040647;28;1189;-68
2022/07/05 07:18:43;;;;;;;;;;;21.80;73.10;;;;;;5015956;28;1385;-67
2022/07/05 07:21:08;;;;;;;;;;;21.80;73.10;;;;;;5033620;28;1132;-67
2022/07/05 07:23:35;;;;;;;;;;;21.80;73.10;;;;;;5033542;28;883;-67
2022/07/05 07:26:00;;;;;;;;;;;21.80;73.10;;;;;;5045066;28;1902;-67
2022/07/05 07:28:26;;;;;;;;;;;21.80;73.20;;;;;;5053501;28;875;-68
2022/07/05 07:30:51;;;;;;;;;;;21.80;73.20;;;;;;5035410;28;1178;-67
2022/07/05 07:33:17;;;;;;;;;;;21.80;73.10;;;;;;5053380;28;792;-68
2022/07/05 07:35:42;;;;;;;;;;;21.80;73.10;;;;;;5052623;28;807;-67
2022/07/05 07:38:08;;;;;;;;;;;21.80;73.10;;;;;;5053198;28;808;-67
2022/07/05 07:40:33;;;;;;;;;;;21.80;73.10;;;;;;5053171;28;1207;-68
2022/07/05 07:42:58;;;;;;;;;;;21.80;73.20;;;;;;5053094;28;888;-67
2022/07/05 07:45:26;;;;;;;;;;;21.80;73.10;;;;;;5052895;28;1962;-67
2022/07/05 07:47:52;;;;;;;;;;;21.80;73.10;;;;;;5053166;28;898;-67
2022/07/05 07:50:17;;;;;;;;;;;21.80;73.30;;;;;;5053011;28;1294;-67
2022/07/05 07:52:44;;;;;;;;;;;21.80;73.20;;;;;;5053025;28;1049;-68
2022/07/05 07:55:10;;;;;;;;;;;21.80;73.10;;;;;;5052638;28;960;-67
2022/07/05 07:57:35;;;;;;;;;;;21.80;73.10;;;;;;5053197;28;1017;-67
2022/07/05 08:00:01;;;;;;;;;;;21.80;73.10;;;;;;5035358;28;1222;-67
2022/07/05 08:02:26;;;;;;;;;;;21.80;73.10;;;;;;5052900;28;788;-67
2022/07/05 08:04:53;;;;;;;;;;;21.80;73.20;;;;;;5052842;28;981;-67
2022/07/05 08:07:19;;;;;;;;;;;21.80;73.20;;;;;;5052906;28;1902;-67
2022/07/05 08:09:44;;;;;;;;;;;21.80;73.10;;;;;;5052923;28;1209;-68
2022/07/05 08:12:10;;;;;;;;;;;21.80;73.20;;;;;;5052711;28;809;-67
2022/07/05 08:14:35;;;;;;;;;;;21.80;73.20;;;;;;5052846;28;922;-67
2022/07/05 08:17:01;;;;;;;;;;;21.80;73.10;;;;;;5033900;28;1253;-67
2022/07/05 08:22:10;;;;;;;;;;;21.80;73.10;;;;;;5032920;28;637;-67
2022/07/05 08:24:36;;;;;;;;;;;21.80;73.10;;;;;;5032654;28;1202;-68
2022/07/05 08:27:02;;;;;;;;;;;21.80;73.10;;;;;;5018258;28;1906;-68
2022/07/05 08:29:27;;;;;;;;;;;21.80;73.20;;;;;;5035209;28;1205;-67
2022/07/05 08:31:53;;;;;;;;;;;21.80;73.20;;;;;;5052679;28;1022;-68
2022/07/05 08:34:18;;;;;;;;;;;21.80;73.10;;;;;;5052499;28;843;-67
2022/07/05 08:36:44;;;;;;;;;;;21.80;73.10;;;;;;5052699;28;812;-67
2022/07/05 08:39:09;;;;;;;;;;;21.80;73.20;;;;;;5034558;28;1266;-67
2022/07/05 08:41:35;;;;;;;;;;;21.80;73.20;;;;;;5052571;28;1057;-67
2022/07/05 08:44:02;;;;;;;;;;;21.80;73.20;;;;;;5037881;28;1027;-67
2022/07/05 08:46:27;;;;;;;;;;;21.80;73.10;;;;;;5038694;28;1906;-68
2022/07/05 08:48:53;;;;;;;;;;;21.80;73.20;;;;;;5038542;28;1211;-67
2022/07/05 08:51:22;;;;;;;;;;;21.80;73.20;;;;;;5056303;28;782;-68
2022/07/05 08:53:49;;;;;;;;;;;21.80;73.20;;;;;;5056073;28;875;-67
2022/07/05 08:56:14;;;;;;;;;;;21.80;73.20;;;;;;5038504;28;1085;-67
2022/07/05 08:58:40;;;;;;;;;;;21.80;73.20;;;;;;5056399;28;874;-68
2022/07/05 09:01:06;;;;;;;;;;;21.80;73.20;;;;;;5056427;28;1177;-67
2022/07/05 09:03:33;;;;;;;;;;;21.80;73.20;;;;;;5056085;28;820;-67
2022/07/05 09:05:58;;;;;;;;;;;21.80;73.20;;;;;;5055881;28;2241;-67
2022/07/05 09:08:24;;;;;;;;;;;21.80;73.20;;;;;;5055982;28;865;-68
2022/07/05 09:10:49;;;;;;;;;;;21.80;73.20;;;;;;5055995;28;1176;-68
2022/07/05 09:13:15;;;;;;;;;;;21.80;73.20;;;;;;5056229;28;819;-68
2022/07/05 09:15:40;;;;;;;;;;;21.80;73.20;;;;;;5047965;28;1186;-67
2022/07/05 09:18:05;;;;;;;;;;;21.80;73.20;;;;;;5035842;28;695;-68
2022/07/05 09:20:31;;;;;;;;;;;21.80;73.20;;;;;;5018083;28;1287;-67
2022/07/05 09:22:56;;;;;;;;;;;21.80;73.20;;;;;;5035850;28;843;-67
2022/07/05 09:25:27;;;;;;;;;;;21.80;73.20;;;;;;5024372;28;1171;-67
2022/07/05 09:27:57;;;;;;;;;;;21.80;73.20;;;;;;5055862;28;838;-68
2022/07/05 09:30:26;;;;;;;;;;;21.80;73.20;;;;;;5055756;28;1199;-67
2022/07/05 09:33:02;;;;;;;;;;;21.80;73.20;;;;;;5055844;28;708;-67
2022/07/05 09:35:28;;;;;;;;;;;21.80;73.20;;;;;;5037461;28;852;-68
2022/07/05 09:37:53;;;;;;;;;;;21.80;73.20;;;;;;5055587;28;859;-68
2022/07/05 09:40:19;;;;;;;;;;;21.80;73.20;;;;;;5055596;28;1305;-67
2022/07/05 09:42:44;;;;;;;;;;;21.80;73.20;;;;;;5037695;28;808;-67
2022/07/05 09:45:10;;;;;;;;;;;21.80;73.60;;;;;;5055144;28;895;-68
2022/07/05 09:47:35;;;;;;;;;;;21.80;73.20;;;;;;5037471;28;1894;-67
2022/07/05 09:50:04;;;;;;;;;;;21.80;73.20;;;;;;5037253;28;1279;-68
2022/07/05 09:52:31;;;;;;;;;;;21.80;73.20;;;;;;5055463;28;832;-67
2022/07/05 09:55:00;;;;;;;;;;;21.80;73.20;;;;;;5037114;28;831;-67
2022/07/05 09:57:25;;;;;;;;;;;21.80;73.20;;;;;;5037455;28;902;-67
2022/07/05 09:59:57;;;;;;;;;;;21.80;73.20;;;;;;5055219;28;1268;-67
2022/07/05 10:02:43;;;;;;;;;;;21.80;73.20;;;;;;5037106;28;819;-68
2022/07/05 10:05:12;;;;;;;;;;;21.80;73.20;;;;;;5054435;28;1133;-67
2022/07/05 10:07:40;;;;;;;;;;;21.80;73.20;;;;;;5055064;28;1910;-68
2022/07/05 10:10:06;;;;;;;;;;;21.80;73.20;;;;;;5037366;28;1130;-67
2022/07/05 10:12:32;;;;;;;;;;;21.80;73.20;;;;;;5037034;28;860;-67
2022/07/05 10:14:57;;;;;;;;;;;21.80;73.20;;;;;;5034785;28;1173;-68
2022/07/05 10:17:23;;;;;;;;;;;21.80;73.20;;;;;;5017327;28;876;-67
2022/07/05 10:19:48;;;;;;;;;;;21.80;73.20;;;;;;5017192;28;1362;-67
2022/07/05 10:22:13;;;;;;;;;;;21.80;73.20;;;;;;5017095;28;907;-67
2022/07/05 10:24:39;;;;;;;;;;;21.80;74.00;;;;;;5017458;28;1049;-67
2022/07/05 10:27:05;;;;;;;;;;;21.80;73.20;;;;;;5036716;28;1910;-67
2022/07/05 10:29:31;;;;;;;;;;;21.80;73.20;;;;;;5054292;28;1229;-67
2022/07/05 10:31:57;;;;;;;;;;;21.80;73.20;;;;;;5036719;28;812;-68
2022/07/05 10:34:22;;;;;;;;;;;21.80;73.20;;;;;;5036533;28;1034;-68
2022/07/05 10:36:48;;;;;;;;;;;21.80;73.20;;;;;;5036632;28;1050;-68
2022/07/05 10:39:13;;;;;;;;;;;21.80;73.20;;;;;;5054370;28;1199;-67
2022/07/05 10:41:40;;;;;;;;;;;21.80;73.20;;;;;;5036641;28;938;-67
2022/07/05 10:44:05;;;;;;;;;;;21.80;73.20;;;;;;5054230;28;772;-68
2022/07/05 10:46:37;;;;;;;;;;;21.80;73.20;;;;;;5054150;28;1894;-68
2022/07/05 10:49:09;;;;;;;;;;;21.80;73.20;;;;;;5036440;28;1201;-68
2022/07/05 10:51:35;;;;;;;;;;;21.80;73.20;;;;;;5036438;28;836;-68
2022/07/05 10:54:00;;;;;;;;;;;21.80;73.30;;;;;;5036060;28;907;-68
2022/07/05 10:56:26;;;;;;;;;;;21.80;73.30;;;;;;5036450;28;947;-67
2022/07/05 10:59:03;;;;;;;;;;;21.80;73.20;;;;;;5053771;28;883;-67
2022/07/05 11:01:32;;;;;;;;;;;21.80;73.20;;;;;;5036202;28;867;-68
2022/07/05 11:04:01;;;;;;;;;;;21.80;73.20;;;;;;5035816;28;1313;-68
2022/07/05 11:06:27;;;;;;;;;;;21.80;73.20;;;;;;5053366;28;1957;-67
2022/07/05 11:08:59;;;;;;;;;;;21.80;73.20;;;;;;5035933;28;1286;-67
2022/07/05 11:11:24;;;;;;;;;;;21.80;73.30;;;;;;5053764;28;788;-67
2022/07/05 11:13:50;;;;;;;;;;;21.80;73.20;;;;;;5035706;28;1053;-67
2022/07/05 11:16:25;;;;;;;;;;;21.80;73.20;;;;;;5041272;28;1198;-68
2022/07/05 11:18:52;;;;;;;;;;;21.80;73.20;;;;;;5016016;28;1116;-68
2022/07/05 11:21:18;;;;;;;;;;;21.80;73.20;;;;;;5016321;28;816;-67
2022/07/05 11:23:43;;;;;;;;;;;21.80;73.20;;;;;;5015683;28;812;-68
2022/07/05 11:26:09;;;;;;;;;;;21.80;73.20;;;;;;5028634;28;1902;-68
2022/07/05 11:28:47;;;;;;;;;;;21.80;73.20;;;;;;5035624;28;1081;-67
2022/07/05 11:31:13;;;;;;;;;;;21.80;73.20;;;;;;5035633;28;1290;-67
2022/07/05 11:33:45;;;;;;;;;;;21.80;73.20;;;;;;5053159;28;878;-67
2022/07/05 11:36:26;;;;;;;;;;;21.80;73.30;;;;;;5035807;28;875;-68
2022/07/05 11:39:12;;;;;;;;;;;21.80;73.20;;;;;;5035570;28;851;-68
2022/07/05 11:41:38;;;;;;;;;;;21.80;73.20;;;;;;5053177;28;887;-67
2022/07/05 11:44:04;;;;;;;;;;;21.80;73.20;;;;;;5035372;28;906;-68
2022/07/05 11:46:30;;;;;;;;;;;21.80;73.20;;;;;;5035096;28;1898;-68
2022/07/05 11:48:55;;;;;;;;;;;21.80;73.20;;;;;;5035415;28;1325;-68
2022/07/05 11:51:21;;;;;;;;;;;21.80;73.30;;;;;;5035426;28;895;-68
2022/07/05 11:53:46;;;;;;;;;;;21.80;73.20;;;;;;5035097;28;879;-67
2022/07/05 11:56:12;;;;;;;;;;;21.80;73.20;;;;;;5053072;28;917;-67
2022/07/05 11:58:37;;;;;;;;;;;21.80;73.30;;;;;;5035137;28;847;-67
2022/07/05 12:01:03;;;;;;;;;;;21.80;73.20;;;;;;5052824;28;1172;-67
2022/07/05 12:03:29;;;;;;;;;;;21.80;73.20;;;;;;5035106;28;808;-68
2022/07/05 12:05:54;;;;;;;;;;;21.80;73.20;;;;;;5052715;28;1914;-67
2022/07/05 12:08:23;;;;;;;;;;;21.80;73.30;;;;;;5053088;28;784;-67
2022/07/05 12:13:48;;;;;;;;;;;21.80;73.20;;;;;;5052858;28;602;-67
2022/07/05 12:16:14;;;;;;;;;;;21.80;73.20;;;;;;5022797;28;1198;-68
2022/07/05 12:18:54;;;;;;;;;;;21.80;73.30;;;;;;5035583;28;1112;-68
2022/07/05 12:21:20;;;;;;;;;;;21.80;73.30;;;;;;5037458;28;808;-67
2022/07/05 12:23:46;;;;;;;;;;;21.80;73.20;;;;;;5019222;28;876;-67
2022/07/05 12:26:14;;;;;;;;;;;21.80;73.20;;;;;;5032133;28;2035;-68
2022/07/05 12:28:43;;;;;;;;;;;21.80;73.30;;;;;;5056824;28;799;-67
2022/07/05 12:31:18;;;;;;;;;;;21.80;73.20;;;;;;5038914;28;1197;-67
2022/07/05 12:33:44;;;;;;;;;;;21.80;73.30;;;;;;5056637;28;854;-67
2022/07/05 12:36:13;;;;;;;;;;;21.80;73.20;;;;;;5039096;28;891;-68
2022/07/05 12:38:39;;;;;;;;;;;21.80;73.30;;;;;;5056994;28;789;-68
2022/07/05 12:41:04;;;;;;;;;;;21.80;73.20;;;;;;5039010;28;1180;-68
2022/07/05 12:43:31;;;;;;;;;;;21.80;73.30;;;;;;5056652;28;1029;-67
2022/07/05 12:46:06;;;;;;;;;;;21.80;73.20;;;;;;5038790;28;1969;-68
2022/07/05 12:48:35;;;;;;;;;;;21.80;73.30;;;;;;5038731;28;820;-68
2022/07/05 12:51:00;;;;;;;;;;;21.80;73.30;;;;;;5056537;28;1276;-67
2022/07/05 12:58:55;;;;;;;;;;;21.80;73.20;;;;;;5041440;28;1287;-68
2022/07/05 13:01:25;;;;;;;;;;;21.80;73.30;;;;;;5063589;23;1786;-71
2022/07/05 13:04:09;;;;;;;;;;;21.80;73.30;;;;;;5055337;28;802;-71
2022/07/05 13:06:41;;;;;;;;;;;21.80;73.30;;;;;;5056221;28;1914;-71
2022/07/05 13:09:06;;;;;;;;;;;21.80;73.20;;;;;;5056222;28;1001;-71
2022/07/05 13:11:32;;;;;;;;;;;21.80;73.30;;;;;;5068200;28;1298;-71
2022/07/05 13:13:57;;;;;;;;;;;21.80;73.30;;;;;;5057671;28;1222;-71
2022/07/05 13:16:23;;;;;;;;;;;21.80;73.30;;;;;;5075897;28;1145;-70
2022/07/05 13:18:48;;;;;;;;;;;21.80;73.30;;;;;;5070004;28;1118;-71
2022/07/05 13:21:14;;;;;;;;;;;21.80;73.30;;;;;;5054509;28;1290;-70
2022/07/05 13:23:39;;;;;;;;;;;21.80;73.30;;;;;;5055784;28;1064;-70
2022/07/05 13:26:04;;;;;;;;;;;21.80;74.00;;;;;;5066742;28;1914;-71
2022/07/05 13:28:30;;;;;;;;;;;21.80;74.00;;;;;;5073985;28;1274;-71
2022/07/05 13:30:55;;;;;;;;;;;21.80;73.20;;;;;;5075579;28;1184;-71
2022/07/05 13:33:21;;;;;;;;;;;21.80;73.30;;;;;;5075796;28;803;-71
2022/07/05 13:35:46;;;;;;;;;;;21.80;73.20;;;;;;5075466;28;949;-70
2022/07/05 13:38:12;;;;;;;;;;;21.80;73.30;;;;;;5075516;28;799;-71
2022/07/05 13:40:37;;;;;;;;;;;21.80;73.20;;;;;;5075458;28;1192;-71
2022/07/05 13:43:03;;;;;;;;;;;21.80;73.30;;;;;;5074249;28;978;-71
2022/07/05 13:45:29;;;;;;;;;;;21.80;73.20;;;;;;5075089;28;787;-70
2022/07/05 13:47:54;;;;;;;;;;;21.80;73.30;;;;;;5075309;28;1890;-71
2022/07/05 13:50:32;;;;;;;;;;;21.80;73.20;;;;;;5074916;28;1202;-71
2022/07/05 13:52:57;;;;;;;;;;;21.80;73.30;;;;;;5075254;28;831;-71
2022/07/05 13:55:23;;;;;;;;;;;21.80;73.30;;;;;;5073839;28;846;-70
2022/07/05 13:57:48;;;;;;;;;;;21.80;73.30;;;;;;5075030;28;1048;-70
2022/07/05 14:00:14;;;;;;;;;;;21.80;73.20;;;;;;5073957;28;1230;-71
2022/07/05 14:02:39;;;;;;;;;;;21.80;73.30;;;;;;5075462;28;862;-71
2022/07/05 14:05:05;;;;;;;;;;;21.80;73.30;;;;;;5074906;28;914;-71
2022/07/05 14:07:30;;;;;;;;;;;21.80;73.30;;;;;;5074789;28;1886;-71
2022/07/05 14:09:56;;;;;;;;;;;21.80;73.30;;;;;;5074944;28;1197;-70
2022/07/05 14:12:21;;;;;;;;;;;21.80;73.30;;;;;;5074629;28;871;-71
2022/07/05 14:14:47;;;;;;;;;;;21.80;73.30;;;;;;5073079;28;1149;-70
2022/07/05 14:17:12;;;;;;;;;;;21.80;73.30;;;;;;5054974;28;796;-71
2022/07/05 14:19:38;;;;;;;;;;;21.80;73.30;;;;;;5054719;28;1110;-70
2022/07/05 14:22:03;;;;;;;;;;;21.80;73.30;;;;;;5053572;28;1300;-71
2022/07/05 14:24:29;;;;;;;;;;;21.80;73.30;;;;;;5055326;28;897;-71
2022/07/05 14:26:54;;;;;;;;;;;21.80;73.30;;;;;;5073687;28;1906;-70
2022/07/05 14:29:20;;;;;;;;;;;21.80;73.40;;;;;;5073488;28;883;-70
2022/07/05 14:31:45;;;;;;;;;;;21.80;73.30;;;;;;5073252;28;1286;-71
2022/07/05 14:34:11;;;;;;;;;;;21.80;73.30;;;;;;5074488;28;903;-71
2022/07/05 14:36:36;;;;;;;;;;;21.80;73.30;;;;;;5074473;28;846;-70
2022/07/05 14:39:01;;;;;;;;;;;21.80;73.30;;;;;;5074379;28;879;-71
2022/07/05 14:41:27;;;;;;;;;;;21.80;73.30;;;;;;5073918;28;1197;-71
2022/07/05 14:43:53;;;;;;;;;;;21.80;73.30;;;;;;5072734;28;831;-71